ADDS METAR Data INFO
IDs: Format: Raw Decoded Include TAF

Data at: 1839 UTC 17 Oct 2017

KCFE 171835Z AUTO 19005KT 10SM CLR 20/07 A2999 RMK AO2 T01970067
KCFE 171814Z AUTO 16003KT 10SM CLR 19/07 A3000 RMK AO2 T01910070
KCFE 171754Z AUTO 19004KT 10SM CLR 19/07 A3000 RMK AO2 T01860073
KCFE 171735Z AUTO 19004KT 10SM CLR 18/07 A3001 RMK AO2 T01770071
KCFE 171714Z AUTO 18004KT 10SM CLR 17/07 A3001 RMK AO2 T01670071
KCFE 171654Z AUTO 19005KT 10SM CLR 16/07 A3001 RMK AO2 T01570071
KCFE 171635Z AUTO 19003KT 10SM CLR 15/07 A3001 RMK AO2 T01460071
KCFE 171614Z AUTO 00000KT 10SM CLR 13/07 A3003 RMK AO2 T01330066
KCFE 171554Z AUTO 00000KT 10SM CLR 12/06 A3003 RMK AO2 T01220064
KCFE 171535Z AUTO 00000KT 10SM CLR 11/06 A3003 RMK AO2 T01110062
KCFE 171514Z AUTO 00000KT 10SM CLR 10/06 A3003 RMK AO2 T01010059
KCFE 171454Z AUTO 00000KT 10SM CLR 09/06 A3002 RMK AO2 T00940056
KCFE 171435Z AUTO 00000KT 10SM CLR 09/05 A3002 RMK AO2 T00850051
KCFE 171414Z AUTO 00000KT 10SM CLR 08/05 A3002 RMK AO2 T00770049
KCFE 171354Z AUTO 00000KT 10SM CLR 06/05 A3002 RMK AO2 T00640045
KCFE 171335Z AUTO 00000KT 10SM CLR 04/03 A3001 RMK AO2 T00430026
KCFE 171314Z AUTO 00000KT 10SM CLR 04/02 A3001 RMK AO2 T00350021
KCFE 171254Z AUTO 00000KT 10SM CLR 03/02 A3001 RMK AO2 T00300016
KCFE 171235Z AUTO 00000KT 10SM CLR 03/02 A3001 RMK AO2 T00300015
KCFE 171214Z AUTO 00000KT 10SM CLR 04/02 A3001 RMK AO2 T00350017
KCFE 171154Z AUTO 00000KT 10SM CLR 04/02 A3001 RMK AO2 T00360019
KCFE 171135Z AUTO 00000KT 10SM CLR 04/02 A3001 RMK AO2 T00420023
KCFE 171114Z AUTO 00000KT 10SM CLR 04/02 A3001 RMK AO2 T00400018
KCFE 171055Z AUTO 00000KT 10SM CLR 04/02 A3001 RMK AO2 T00410019
KCFE 171034Z AUTO 00000KT 10SM CLR 04/02 A3000 RMK AO2 T00440021
KCFE 171014Z AUTO 00000KT 10SM CLR 05/02 A2999 RMK AO2 T00450021
KCFE 170955Z AUTO 00000KT 10SM CLR 04/02 A2998 RMK AO2 T00430020
KCFE 170934Z AUTO 00000KT 10SM CLR 05/02 A2998 RMK AO2 T00460024
KCFE 170914Z AUTO 00000KT 10SM CLR 05/02 A2998 RMK AO2 T00470021
KCFE 170855Z AUTO 00000KT 10SM CLR 05/02 A2998 RMK AO2 T00480020
KCFE 170834Z AUTO 00000KT 10SM CLR 05/02 A2998 RMK AO2 T00540024
KCFE 170814Z AUTO 00000KT 10SM CLR 06/03 A2998 RMK AO2 T00600025
KCFE 170755Z AUTO 00000KT 10SM CLR 06/02 A2998 RMK AO2 T00610023
KCFE 170734Z AUTO 00000KT 10SM CLR 07/03 A2998 RMK AO2 T00670030
KCFE 170714Z AUTO 00000KT 10SM CLR 07/03 A2997 RMK AO2 T00700030
KCFE 170655Z AUTO 00000KT 10SM CLR 07/03 A2997 RMK AO2 T00700031
KCFE 170634Z AUTO 00000KT 10SM CLR 07/03 A2997 RMK AO2 T00650028
KCFE 170614Z AUTO 00000KT 10SM CLR 06/03 A2997 RMK AO2 T00620028
KCFE 170554Z AUTO 00000KT 10SM CLR 07/03 A2997 RMK AO2 T00740030
KCFE 170534Z AUTO 00000KT 10SM CLR 07/03 A2997 RMK AO2 T00710030
KCFE 170514Z AUTO 00000KT 10SM CLR 08/04 A2996 RMK AO2 T00780038
KCFE 170454Z AUTO 00000KT 10SM CLR 08/03 A2997 RMK AO2 T00780030
KCFE 170434Z AUTO 00000KT 10SM CLR 10/03 A2996 RMK AO2 T01000032
KCFE 170414Z AUTO 00000KT 10SM CLR 10/03 A2997 RMK AO2 T00980032
KCFE 170355Z AUTO 21003KT 10SM CLR 11/03 A2997 RMK AO2 T01100030
KCFE 170334Z AUTO 00000KT 10SM CLR 11/03 A2997 RMK AO2 T01140030
KCFE 170314Z AUTO 00000KT 10SM CLR 12/03 A2997 RMK AO2 T01180031
KCFE 170255Z AUTO 19003KT 10SM CLR 12/03 A2996 RMK AO2 T01230030
KCFE 170234Z AUTO 19004KT 10SM CLR 13/03 A2996 RMK AO2 T01280030
KCFE 170214Z AUTO 18005KT 10SM CLR 13/03 A2996 RMK AO2 T01340025
KCFE 170154Z AUTO 18005KT 10SM CLR 14/03 A2996 RMK AO2 T01350025
KCFE 170134Z AUTO 19004KT 10SM CLR 14/02 A2996 RMK AO2 T01370021
KCFE 170114Z AUTO 17005KT 10SM CLR 14/02 A2997 RMK AO2 T01420020
KCFE 170054Z AUTO 16004KT 10SM CLR 14/02 A2997 RMK AO2 T01380021
KCFE 170034Z AUTO 00000KT 10SM CLR 15/02 A2998 RMK AO2 T01470017
KCFE 170014Z AUTO 16004KT 10SM CLR 15/02 A2998 RMK AO2 T01530017
KCFE 162354Z AUTO 16005KT 10SM CLR 16/02 A2998 RMK AO2 T01610017
KCFE 162334Z AUTO 17006KT 10SM CLR 17/02 A2998 RMK AO2 T01670017
KCFE 162314Z AUTO 17006KT 10SM CLR 17/02 A2999 RMK AO2 T01720016
KCFE 162255Z AUTO 18006KT 10SM CLR 18/02 A2999 RMK AO2 T01800015
KCFE 162234Z AUTO 18008KT 10SM CLR 19/01 A2999 RMK AO2 T01860012
KCFE 162214Z AUTO 18007KT 10SM CLR 19/01 A3001 RMK AO2 T01870013
KCFE 162154Z AUTO 18007KT 10SM CLR 19/01 A3001 RMK AO2 T01900013
KCFE 162134Z AUTO 18007KT 10SM CLR 19/02 A3002 RMK AO2 T01860015
KCFE 162114Z AUTO 19009KT 10SM CLR 19/01 A3003 RMK AO2 T01860013
KCFE 162054Z AUTO 19009G14KT 10SM CLR 19/01 A3004 RMK AO2 T01860014
KCFE 162034Z AUTO 19007G17KT 10SM CLR 18/02 A3005 RMK AO2 T01840018
KCFE 162014Z AUTO 20009G14KT 10SM CLR 18/01 A3006 RMK AO2 T01800014
KCFE 161954Z AUTO 19007KT 10SM CLR 18/02 A3007 RMK AO2 T01760015
KCFE 161934Z AUTO 19010KT 10SM CLR 17/01 A3009 RMK AO2 T01710013
KCFE 161914Z AUTO 19008G15KT 10SM CLR 17/01 A3010 RMK AO2 T01700013
KCFE 161854Z AUTO 18010G14KT 10SM CLR 17/01 A3011 RMK AO2 T01670006
KCFE 161834Z AUTO 19009KT 10SM CLR 16/01 A3012 RMK AO2 T01630014
KCFE 161814Z AUTO 18008KT 10SM CLR 16/01 A3013 RMK AO2 T01570009
KCFE 161754Z AUTO 19009KT 10SM CLR 15/01 A3015 RMK AO2 T01500008
KCFE 161734Z AUTO 18007KT 10SM CLR 15/01 A3017 RMK AO2 T01450010
KCFE 161714Z AUTO 20008KT 10SM CLR 14/01 A3019 RMK AO2 T01380011
KCFE 161655Z AUTO 19006KT 10SM CLR 13/02 A3019 RMK AO2 T01310018
KCFE 161634Z AUTO 21008KT 10SM CLR 12/02 A3020 RMK AO2 T01220022
KCFE 161614Z AUTO 19004KT 10SM CLR 11/03 A3021 RMK AO2 T01130027
KCFE 161555Z AUTO 22004KT 10SM CLR 10/03 A3021 RMK AO2 T01010029
KCFE 161534Z AUTO 20004KT 10SM CLR 09/03 A3022 RMK AO2 T00890027
KCFE 161514Z AUTO 20004KT 10SM CLR 08/03 A3022 RMK AO2 T00800030
KCFE 161455Z AUTO 19003KT 10SM CLR 07/03 A3022 RMK AO2 T00680030
KCFE 161434Z AUTO 20004KT 10SM CLR 06/03 A3023 RMK AO2 T00570027
KCFE 161414Z AUTO 20004KT 10SM CLR 04/03 A3023 RMK AO2 T00440025
KCFE 161355Z AUTO 00000KT 10SM CLR 04/02 A3022 RMK AO2 T00350021
KCFE 161334Z AUTO 00000KT 10SM CLR 03/02 A3022 RMK AO2 T00290017
KCFE 161314Z AUTO 00000KT 10SM CLR 02/01 A3022 RMK AO2 T00230012
KCFE 161255Z AUTO 00000KT 10SM CLR 02/00 A3022 RMK AO2 T00150004
KCFE 161234Z AUTO 00000KT 10SM CLR 01/00 A3021 RMK AO2 T00120001
KCFE 161214Z AUTO 00000KT 10SM CLR 02/01 A3022 RMK AO2 T00180005
KCFE 161155Z AUTO 00000KT 10SM CLR 02/01 A3023 RMK AO2 T00210009 10048 20021
KCFE 161134Z AUTO 00000KT 10SM CLR 03/02 A3022 RMK AO2 T00300016
KCFE 161114Z AUTO 20003KT 10SM CLR 03/02 A3022 RMK AO2 T00300016
KCFE 161055Z AUTO 00000KT 10SM CLR 02/01 A3022 RMK AO2 T00240010
KCFE 161034Z AUTO 00000KT 10SM CLR 03/02 A3022 RMK AO2 T00340019
KCFE 161014Z AUTO 20003KT 10SM CLR 04/02 A3021 RMK AO2 T00350018
KCFE 160955Z AUTO 00000KT 10SM CLR 04/02 A3021 RMK AO2 T00350021
KCFE 160934Z AUTO 00000KT 10SM CLR 03/02 A3021 RMK AO2 T00310017
KCFE 160914Z AUTO 00000KT 10SM CLR 03/02 A3022 RMK AO2 T00340021
KCFE 160855Z AUTO 00000KT 10SM CLR 03/02 A3022 RMK AO2 T00300016
KCFE 160834Z AUTO 00000KT 10SM CLR 04/02 A3022 RMK AO2 T00400019
KCFE 160814Z AUTO 00000KT 10SM CLR 05/02 A3022 RMK AO2 T00450021
KCFE 160755Z AUTO 00000KT 10SM CLR 05/03 A3022 RMK AO2 T00470027
KCFE 160734Z AUTO 00000KT 10SM CLR 04/02 A3022 RMK AO2 T00360021
KCFE 160714Z AUTO 00000KT 10SM SCT065 04/02 A3021 RMK AO2 T00400023
KCFE 160655Z AUTO 00000KT 10SM BKN065 04/03 A3021 RMK AO2 T00410025